Time;durP1;ratioP1;P1;durP2;ratioP2;P2;SDS_P1;SDS_P2;PMS_P1;PMS_P2;Temp;Humidity;BMP_temperature;BMP_pressure;BME280_temperature;BME280_humidity;BME280_pressure;Samples;Min_cycle;Max_cycle;Signal;HPM_P1;HPM_P2
2022/01/18 07:58:47;;;;;;;37.53;17.77;;;;;;;5.24;99.94;103778.56;5300891;27;1879705;-75
2022/01/18 08:01:19;;;;;;;25.40;16.17;;;;;;;5.56;100.00;103771.94;5330099;28;20028;-80
2022/01/18 08:03:50;;;;;;;31.55;17.80;;;;;;;5.40;100.00;103774.81;5339704;28;20019;-72
2022/01/18 08:06:22;;;;;;;31.02;16.45;;;;;;;5.30;100.00;103771.47;5337965;28;20419;-76
2022/01/18 08:08:53;;;;;;;30.42;18.33;;;;;;;5.38;100.00;103776.91;5340278;28;20039;-78
2022/01/18 08:11:24;;;;;;;31.15;16.95;;;;;;;5.27;99.77;103783.69;5332255;28;20023;-78
2022/01/18 08:13:57;;;;;;;33.08;18.38;;;;;;;5.45;99.96;103783.38;5340090;28;20108;-78
2022/01/18 08:19:04;;;;;;;27.88;15.25;;;;;;;5.50;99.62;103777.34;5340474;27;20031;-73
2022/01/18 08:21:35;;;;;;;31.10;16.45;;;;;;;5.53;99.50;103776.97;5343126;28;20458;-75
2022/01/18 08:24:07;;;;;;;32.38;17.25;;;;;;;5.52;98.78;103773.34;5337558;27;20095;-74
2022/01/18 08:26:38;;;;;;;36.75;19.23;;;;;;;5.55;99.00;103777.63;5325902;28;20040;-74
2022/01/18 08:29:12;;;;;;;38.85;18.02;;;;;;;5.55;98.91;103778.50;5342008;28;20026;-74
2022/01/18 08:31:43;;;;;;;44.25;18.40;;;;;;;5.52;99.04;103776.13;5336991;28;20012;-74
2022/01/18 08:34:14;;;;;;;37.10;16.90;;;;;;;5.64;99.25;103773.75;5342642;28;20088;-73
2022/01/18 08:36:46;;;;;;;30.70;17.48;;;;;;;5.77;98.81;103775.88;5341920;28;20055;-74
2022/01/18 08:39:18;;;;;;;34.08;17.75;;;;;;;5.72;97.96;103767.31;5340556;28;20030;-78
2022/01/18 08:41:49;;;;;;;40.30;18.52;;;;;;;5.73;98.12;103758.03;5325819;28;20114;-78
2022/01/18 08:44:21;;;;;;;36.00;17.40;;;;;;;5.69;97.86;103767.69;5340169;28;20477;-78
2022/01/18 08:46:52;;;;;;;35.17;17.90;;;;;;;5.70;97.85;103767.53;5332108;28;20062;-78
2022/01/18 08:49:23;;;;;;;34.08;18.08;;;;;;;5.59;97.91;103774.31;5336815;28;20027;-76
2022/01/18 08:51:55;;;;;;;33.72;17.98;;;;;;;5.69;98.60;103775.97;5325847;28;20464;-77
2022/01/18 08:54:26;;;;;;;28.50;17.52;;;;;;;5.74;98.69;103776.25;5335448;28;20073;-78
2022/01/18 08:56:57;;;;;;;35.05;16.00;;;;;;;5.72;98.26;103772.84;5331674;28;20035;-76
2022/01/18 08:59:30;;;;;;;24.85;14.35;;;;;;;5.78;98.30;103778.47;5333665;28;20027;-78
2022/01/18 09:02:03;;;;;;;32.45;17.67;;;;;;;5.76;98.80;103785.19;5338329;28;20026;-78
2022/01/18 09:04:35;;;;;;;30.17;16.25;;;;;;;5.78;98.43;103783.13;5330463;28;20040;-81
2022/01/18 09:07:09;;;;;;;27.60;15.43;;;;;;;5.82;98.96;103777.03;5335649;28;20104;-75
2022/01/18 09:09:45;;;;;;;28.58;17.38;;;;;;;5.83;98.97;103769.66;5311796;28;20399;-79
2022/01/18 09:12:17;;;;;;;33.92;16.55;;;;;;;5.72;98.94;103773.69;5312761;28;20037;-79
2022/01/18 09:14:49;;;;;;;27.02;15.57;;;;;;;5.79;99.46;103777.41;5328009;28;20027;-79
2022/01/18 09:17:20;;;;;;;32.20;18.40;;;;;;;5.87;99.40;103782.00;5321498;28;20028;-79
2022/01/18 09:19:52;;;;;;;29.75;17.90;;;;;;;5.91;99.10;103779.72;5328224;28;20020;-79
2022/01/18 09:22:23;;;;;;;32.85;17.45;;;;;;;5.86;99.38;103780.28;5313105;28;20098;-76
2022/01/18 09:24:54;;;;;;;34.83;17.23;;;;;;;5.96;99.68;103791.94;5317079;28;20020;-76
2022/01/18 09:27:26;;;;;;;28.52;17.08;;;;;;;6.04;99.34;103788.25;5320656;28;20028;-76
2022/01/18 09:29:57;;;;;;;30.90;16.10;;;;;;;5.98;99.25;103795.34;5324164;28;20426;-76
2022/01/18 09:32:28;;;;;;;32.70;17.30;;;;;;;6.05;99.48;103789.94;5313751;28;20064;-79
2022/01/18 09:34:59;;;;;;;31.88;17.50;;;;;;;6.07;99.54;103791.47;5323820;28;20096;-80
2022/01/18 09:37:31;;;;;;;34.42;16.00;;;;;;;6.09;99.52;103789.38;5321642;28;20043;-80
2022/01/18 09:40:04;;;;;;;31.90;17.52;;;;;;;6.15;99.67;103800.69;5323421;28;20016;-79
2022/01/18 09:42:39;;;;;;;27.58;15.60;;;;;;;6.10;99.74;103796.59;5313960;28;20024;-80
2022/01/18 09:45:14;;;;;;;31.95;17.13;;;;;;;6.22;99.80;103801.66;5318305;28;20541;-80
2022/01/18 09:47:48;;;;;;;30.48;18.38;;;;;;;6.20;99.58;103801.84;5319850;28;20043;-80
2022/01/18 09:50:22;;;;;;;27.63;17.67;;;;;;;6.21;99.78;103806.31;5324893;28;20078;-79
2022/01/18 09:52:55;;;;;;;27.60;17.17;;;;;;;6.27;99.73;103807.47;5327525;28;20455;-78
2022/01/18 09:55:31;;;;;;;23.95;16.50;;;;;;;6.24;99.48;103805.09;5312298;28;20506;-78
2022/01/18 09:58:06;;;;;;;25.08;17.38;;;;;;;6.28;99.65;103798.97;5321134;28;20446;-74
2022/01/18 10:00:42;;;;;;;30.75;17.00;;;;;;;6.27;99.61;103810.22;5312477;28;20048;-74
2022/01/18 10:03:33;;;;;;;32.03;19.33;;;;;;;6.29;100.00;103808.13;5319933;28;20050;-74
2022/01/18 10:06:06;;;;;;;35.60;21.60;;;;;;;6.26;99.75;103805.72;5322864;28;20024;-74
2022/01/18 10:08:41;;;;;;;33.08;21.58;;;;;;;6.25;99.60;103812.31;5310947;28;20030;-75
2022/01/18 10:11:17;;;;;;;40.83;25.85;;;;;;;6.25;100.00;103801.28;5314354;28;20020;-75
2022/01/18 10:13:52;;;;;;;39.55;25.05;;;;;;;6.16;99.88;103803.28;5326037;28;20016;-72
2022/01/18 10:16:23;;;;;;;41.33;27.30;;;;;;;6.21;100.00;103806.31;5323707;28;20031;-70
2022/01/18 10:19:02;;;;;;;42.00;25.00;;;;;;;6.25;100.00;103810.41;5323116;28;20114;-76
2022/01/18 10:21:45;;;;;;;37.75;24.38;;;;;;;6.31;100.00;103812.41;5324730;28;20031;-76
2022/01/18 10:24:26;;;;;;;52.38;33.22;;;;;;;6.23;100.00;103806.13;5304591;28;20031;-75
2022/01/18 10:26:58;;;;;;;43.45;23.42;;;;;;;6.24;100.00;103800.44;5320645;28;20343;-75
2022/01/18 10:29:32;;;;;;;39.33;22.27;;;;;;;6.27;100.00;103804.72;5311418;28;20039;-75
2022/01/18 10:32:15;;;;;;;38.92;22.67;;;;;;;6.23;100.00;103795.09;5321368;28;20132;-75
2022/01/18 10:37:29;;;;;;;36.08;21.58;;;;;;;6.29;100.00;103789.69;5319974;28;20044;-76
2022/01/18 10:40:07;;;;;;;32.13;17.80;;;;;;;6.34;100.00;103797.41;5323290;28;20039;-77
2022/01/18 10:42:40;;;;;;;29.52;17.98;;;;;;;6.26;100.00;103797.47;5318093;28;20028;-76
2022/01/18 10:45:14;;;;;;;28.80;17.73;;;;;;;6.41;100.00;103784.53;5324477;28;20055;-77
2022/01/18 10:47:57;;;;;;;31.42;18.52;;;;;;;6.37;100.00;103787.91;5320526;28;20038;-75
2022/01/18 10:50:41;;;;;;;33.75;18.92;;;;;;;6.40;100.00;103782.00;5311862;28;20023;-71
2022/01/18 10:53:15;;;;;;;29.45;18.10;;;;;;;6.48;100.00;103774.47;5311563;28;20024;-69
2022/01/18 10:55:49;;;;;;;34.85;18.95;;;;;;;6.52;100.00;103764.78;5321483;28;20017;-69
2022/01/18 10:58:22;;;;;;;28.27;17.27;;;;;;;6.55;100.00;103762.69;5310214;28;20126;-69
2022/01/18 11:00:53;;;;;;;32.65;18.05;;;;;;;6.60;100.00;103762.97;5324777;28;20019;-74
2022/01/18 11:03:26;;;;;;;31.60;19.38;;;;;;;6.60;100.00;103763.81;5314744;28;20024;-74
2022/01/18 11:06:15;;;;;;;32.40;19.67;;;;;;;6.59;99.93;103766.75;5320395;28;20157;-77
2022/01/18 11:08:51;;;;;;;39.15;22.73;;;;;;;6.62;100.00;103758.09;5315141;28;20035;-77
2022/01/18 11:11:26;;;;;;;34.83;23.13;;;;;;;6.72;100.00;103756.78;5319399;28;20058;-75
2022/01/18 11:14:01;;;;;;;39.08;21.98;;;;;;;6.75;100.00;103756.38;5314989;28;20063;-76
2022/01/18 11:16:40;;;;;;;33.30;19.30;;;;;;;6.86;100.00;103762.44;5316700;28;20069;-74
2022/01/18 11:19:35;;;;;;;32.97;17.70;;;;;;;6.80;98.91;103763.19;5324493;28;20471;-74
2022/01/18 11:22:10;;;;;;;48.97;28.80;;;;;;;6.86;98.72;103760.53;5311267;28;20482;-74
2022/01/18 11:24:44;;;;;;;50.63;29.58;;;;;;;6.82;98.59;103752.84;5323314;28;20030;-72
2022/01/18 11:27:15;;;;;;;39.75;18.90;;;;;;;6.79;97.68;103754.06;5325037;28;20067;-73
2022/01/18 11:29:47;;;;;;;74.68;55.03;;;;;;;6.81;97.59;103756.66;5318474;28;20478;-72
2022/01/18 11:32:21;;;;;;;30.45;17.15;;;;;;;6.82;97.69;103748.16;5318696;28;20027;-73
2022/01/18 11:35:15;;;;;;;36.67;18.45;;;;;;;6.89;97.84;103749.09;5322712;28;20027;-76
2022/01/18 11:37:58;;;;;;;45.00;27.63;;;;;;;6.92;97.40;103748.72;5308988;28;20107;-76
2022/01/18 11:40:48;;;;;;;57.10;37.95;;;;;;;6.95;97.69;103731.78;5317608;28;20012;-76
2022/01/18 11:43:36;;;;;;;37.40;20.08;;;;;;;6.95;96.15;103740.06;5317588;28;20038;-74
2022/01/18 11:46:30;;;;;;;31.95;17.25;;;;;;;7.01;95.20;103734.81;5314173;28;20102;-74
2022/01/18 11:49:22;;;;;;;39.30;17.63;;;;;;;7.03;95.54;103740.97;5316223;28;20032;-74
2022/01/18 11:52:09;;;;;;;33.50;16.42;;;;;;;7.17;95.86;103729.03;5327073;28;20098;-75
2022/01/18 11:54:45;;;;;;;35.70;18.10;;;;;;;7.15;95.00;103734.75;5320419;28;20031;-75
2022/01/18 11:57:22;;;;;;;;;;;;;;;7.35;95.04;103736.88;5315909;28;20474;-76
2022/01/18 12:00:17;;;;;;;30.55;15.57;;;;;;;7.25;93.84;103734.44;5307886;28;20278;-76
2022/01/18 12:02:54;;;;;;;34.83;15.88;;;;;;;7.28;94.16;103734.03;5314126;28;20019;-75
2022/01/18 12:05:26;;;;;;;38.88;16.83;;;;;;;7.31;94.01;103736.41;5308961;28;20028;-75
2022/01/18 12:08:00;;;;;;;65.10;42.08;;;;;;;7.27;93.28;103726.81;5312753;28;20046;-75
2022/01/18 12:10:34;;;;;;;45.22;26.15;;;;;;;7.37;93.09;103735.63;5309340;28;20430;-74
2022/01/18 12:13:11;;;;;;;40.70;19.10;;;;;;;7.32;92.40;103721.53;5323491;28;20423;-75
2022/01/18 12:15:50;;;;;;;32.85;16.13;;;;;;;7.31;92.45;103714.34;5323946;28;20024;-73
2022/01/18 12:18:24;;;;;;;29.13;15.05;;;;;;;7.33;92.21;103719.63;5317274;28;20111;-73
2022/01/18 12:21:00;;;;;;;29.00;15.25;;;;;;;7.32;91.90;103724.31;5314152;28;20028;-73
2022/01/18 12:23:32;;;;;;;32.53;15.07;;;;;;;7.40;91.78;103718.63;5319271;28;20084;-73
2022/01/18 12:26:20;;;;;;;27.90;15.20;;;;;;;7.43;92.42;103722.06;5317337;28;20440;-75
2022/01/18 12:34:25;;;;;;;30.67;15.10;;;;;;;7.60;91.15;103706.94;5305775;28;20483;-75
2022/01/18 12:37:10;;;;;;;30.08;14.75;;;;;;;7.65;90.83;103709.94;5314180;28;20115;-73
2022/01/18 12:39:51;;;;;;;31.08;16.02;;;;;;;7.64;90.25;103708.22;5322841;28;20469;-76
2022/01/18 12:45:05;;;;;;;72.25;55.60;;;;;;;7.64;90.07;103708.22;5319515;28;20479;-73
2022/01/18 12:47:42;;;;;;;27.52;15.88;;;;;;;7.66;90.02;103696.97;5323128;28;20046;-73
2022/01/18 12:50:15;;;;;;;25.27;14.63;;;;;;;7.65;89.78;103704.41;5311818;28;20387;-72
2022/01/18 12:52:47;;;;;;;27.98;14.05;;;;;;;7.67;89.73;103696.78;5319476;28;20451;-72
2022/01/18 12:55:30;;;;;;;26.83;13.93;;;;;;;7.66;89.33;103686.78;5329962;27;20088;-73
2022/01/18 12:58:01;;;;;;;29.15;14.15;;;;;;;7.70;89.71;103682.56;5311702;28;20066;-70
2022/01/18 13:00:41;;;;;;;24.63;14.32;;;;;;;7.76;89.13;103673.47;5325815;28;20031;-71
2022/01/18 13:03:18;;;;;;;31.33;16.27;;;;;;;7.75;89.17;103676.44;5322852;28;20036;-72
2022/01/18 13:05:56;;;;;;;25.20;13.63;;;;;;;7.89;88.25;103669.94;5311028;28;20111;-71
2022/01/18 13:08:39;;;;;;;27.20;15.13;;;;;;;7.76;87.58;103667.94;5319879;28;20024;-70
2022/01/18 13:11:16;;;;;;;26.75;13.52;;;;;;;7.81;87.33;103673.72;5312840;28;20027;-70
2022/01/18 13:14:00;;;;;;;25.77;12.85;;;;;;;7.73;86.95;103671.09;5315064;28;20031;-74
2022/01/18 13:25:12;;;;;;;22.85;11.52;;;;;;;7.80;86.58;103674.78;5326233;28;20047;-74
2022/01/18 13:27:49;;;;;;;66.43;46.55;;;;;;;7.78;86.80;103665.84;5314993;28;20115;-81
2022/01/18 13:30:26;;;;;;;78.18;46.35;;;;;;;7.76;86.04;103659.66;5326105;28;20019;-80
2022/01/18 13:33:00;;;;;;;52.45;33.63;;;;;;;7.74;86.14;103659.00;5325118;28;20031;-82
2022/01/18 13:35:32;;;;;;;29.75;15.27;;;;;;;7.80;86.49;103655.44;5314890;28;20028;-84
2022/01/18 13:38:04;;;;;;;75.55;52.10;;;;;;;7.79;86.42;103650.94;5326953;28;20016;-85
2022/01/18 13:40:41;;;;;;;26.80;14.85;;;;;;;7.82;86.55;103649.69;5320444;28;20367;-85
2022/01/18 13:43:15;;;;;;;28.90;12.52;;;;;;;7.81;86.41;103646.09;5320083;28;20031;-84
2022/01/18 13:45:46;;;;;;;26.42;13.05;;;;;;;7.87;85.19;103643.56;5332215;28;20047;-84
2022/01/18 13:48:18;;;;;;;26.65;12.98;;;;;;;7.92;86.30;103641.03;5318304;28;20054;-86
2022/01/18 13:50:52;;;;;;;24.90;11.93;;;;;;;7.91;85.92;103631.06;5326413;28;20019;-85
2022/01/18 13:53:35;;;;;;;20.83;11.50;;;;;;;7.98;85.13;103626.44;5316677;28;20038;-84
2022/01/18 13:56:17;;;;;;;23.60;11.57;;;;;;;8.02;85.80;103622.19;5323030;28;20036;-84
2022/01/18 13:58:58;;;;;;;25.92;12.95;;;;;;;8.06;85.55;103618.81;5317339;28;20044;-84
2022/01/18 14:01:35;;;;;;;28.00;12.45;;;;;;;8.18;85.64;103613.56;5313726;28;20059;-85
2022/01/18 14:04:19;;;;;;;27.73;13.82;;;;;;;8.32;85.08;103611.69;5323924;28;20027;-88
2022/01/18 14:06:53;;;;;;;37.03;19.38;;;;;;;8.52;83.80;103609.00;5317170;28;20027;-89
2022/01/18 14:09:27;;;;;;;22.88;12.52;;;;;;;8.54;82.42;103609.66;5325159;28;20046;-86
2022/01/18 14:11:58;;;;;;;29.70;11.43;;;;;;;8.67;82.73;103608.84;5325645;28;20027;-85
2022/01/18 14:14:35;;;;;;;19.42;10.57;;;;;;;8.68;81.86;103600.31;5321561;28;20085;-81
2022/01/18 14:17:13;;;;;;;28.25;10.65;;;;;;;8.81;80.83;103598.63;5317479;28;20031;-80
2022/01/18 14:19:45;;;;;;;24.50;10.80;;;;;;;8.78;80.70;103594.38;5314537;28;20085;-81
2022/01/18 14:22:23;;;;;;;24.20;9.27;;;;;;;9.01;79.52;103577.38;5321247;28;20056;-83
2022/01/18 14:24:58;;;;;;;23.45;8.90;;;;;;;9.06;78.70;103585.03;5320991;28;20391;-82
2022/01/18 14:27:34;;;;;;;18.98;8.20;;;;;;;8.99;76.82;103585.03;5317121;28;20085;-81
2022/01/18 14:30:08;;;;;;;18.92;8.98;;;;;;;8.96;77.11;103592.91;5326385;28;20486;-82
2022/01/18 14:32:45;;;;;;;23.33;10.73;;;;;;;9.17;78.48;103572.47;5316438;28;20032;-82
2022/01/18 14:35:19;;;;;;;24.00;10.45;;;;;;;9.06;78.65;103580.34;5319411;28;20026;-82
2022/01/18 14:37:52;;;;;;;21.02;11.10;;;;;;;9.11;76.41;103575.03;5313077;28;20372;-82
2022/01/18 14:40:27;;;;;;;19.83;7.05;;;;;;;9.18;75.41;103572.25;5322699;28;20024;-82
2022/01/18 14:43:05;;;;;;;30.48;11.45;;;;;;;9.16;75.51;103574.38;5324246;28;20026;-77
2022/01/18 14:45:52;;;;;;;20.02;7.90;;;;;;;9.13;75.44;103569.28;5321961;28;20023;-84
2022/01/18 14:48:26;;;;;;;17.80;6.47;;;;;;;8.99;75.18;103568.41;5323787;28;20030;-82
2022/01/18 14:50:58;;;;;;;19.77;7.10;;;;;;;8.95;76.21;103566.28;5315393;28;20042;-81
2022/01/18 14:53:29;;;;;;;18.95;6.65;;;;;;;8.98;75.06;103560.34;5311625;28;20107;-80
2022/01/18 14:56:00;;;;;;;38.83;24.38;;;;;;;8.98;75.84;103550.13;5321352;28;20091;-80
2022/01/18 14:58:33;;;;;;;21.77;8.00;;;;;;;8.96;74.79;103546.69;5325492;28;20479;-82
2022/01/18 15:01:05;;;;;;;17.00;7.45;;;;;;;8.91;74.67;103550.09;5325673;28;20038;-82
2022/01/18 15:03:37;;;;;;;18.52;6.78;;;;;;;8.89;75.49;103546.69;5310701;28;20027;-83
2022/01/18 15:06:09;;;;;;;13.23;5.28;;;;;;;9.10;79.78;103547.53;5320645;28;20027;-85
2022/01/18 15:08:40;;;;;;;21.63;8.77;;;;;;;8.89;76.29;103563.28;5320405;28;20494;-75
2022/01/18 15:11:11;;;;;;;16.83;6.97;;;;;;;8.90;75.30;103558.63;5320606;28;20040;-75
2022/01/18 15:13:42;;;;;;;13.60;5.70;;;;;;;8.93;77.44;103556.28;5329841;28;20020;-81
2022/01/18 15:16:14;;;;;;;16.30;6.60;;;;;;;8.78;75.84;103546.50;5322477;28;20028;-84
2022/01/18 15:18:45;;;;;;;17.05;6.53;;;;;;;8.89;77.86;103551.38;5337755;28;20050;-84
2022/01/18 15:21:16;;;;;;;13.90;6.38;;;;;;;8.91;78.41;103555.63;5328822;28;20024;-83
2022/01/18 15:23:47;;;;;;;17.70;6.15;;;;;;;9.06;78.61;103547.13;5324853;28;20028;-79
2022/01/18 15:26:19;;;;;;;16.55;7.32;;;;;;;8.97;78.21;103542.84;5310522;28;20027;-80
2022/01/18 15:28:50;;;;;;;47.42;35.00;;;;;;;8.76;77.17;103537.53;5330320;28;20019;-88
2022/01/18 15:31:21;;;;;;;19.70;8.23;;;;;;;8.77;78.00;103542.00;5334414;28;20133;-92
2022/01/18 15:33:53;;;;;;;15.88;7.68;;;;;;;8.82;78.00;103536.69;5310846;28;20113;-78
2022/01/18 15:36:24;;;;;;;17.35;8.50;;;;;;;8.88;79.08;103533.09;5311297;28;20032;-76
2022/01/18 15:38:56;;;;;;;17.63;7.70;;;;;;;8.79;76.97;103539.88;5318864;28;20101;-75
2022/01/18 15:41:27;;;;;;;21.35;8.80;;;;;;;8.83;79.07;103541.16;5321774;28;20032;-88
2022/01/18 15:43:58;;;;;;;20.67;8.85;;;;;;;8.96;79.62;103538.41;5327876;28;20110;-90
2022/01/18 15:46:30;;;;;;;21.40;9.00;;;;;;;8.71;77.08;103536.25;5315689;28;20016;-81
2022/01/18 15:49:04;;;;;;;22.52;8.75;;;;;;;8.68;76.64;103530.31;5325729;28;20043;-76
2022/01/18 15:51:35;;;;;;;18.65;7.70;;;;;;;8.88;78.81;103530.31;5323618;28;20454;-84
2022/01/18 15:54:07;;;;;;;19.23;8.07;;;;;;;8.70;76.55;103526.25;5315824;28;20045;-87
2022/01/18 15:56:45;;;;;;;16.00;7.82;;;;;;;8.66;77.61;103524.97;5323344;28;20039;-86
2022/01/18 15:59:17;;;;;;;16.13;7.47;;;;;;;8.83;78.59;103525.41;5323122;28;20024;-87
2022/01/18 16:01:51;;;;;;;15.50;7.60;;;;;;;8.73;77.12;103518.59;5325078;28;20085;-86
2022/01/18 16:04:23;;;;;;;18.80;7.55;;;;;;;8.80;77.64;103520.31;5326735;28;20024;-82
2022/01/18 16:06:54;;;;;;;20.52;7.30;;;;;;;8.63;76.76;103522.63;5326051;28;20036;-81
2022/01/18 16:09:26;;;;;;;17.88;7.75;;;;;;;8.68;76.81;103517.31;5321941;28;20099;-83
2022/01/18 16:11:58;;;;;;;25.27;8.32;;;;;;;8.73;77.12;103513.06;5322480;28;20020;-82
2022/01/18 16:14:29;;;;;;;19.83;7.60;;;;;;;8.64;75.72;103510.53;5310747;28;20083;-82
2022/01/18 16:17:00;;;;;;;16.67;7.43;;;;;;;8.64;75.69;103504.13;5312833;28;20024;-82
2022/01/18 16:19:32;;;;;;;18.98;8.65;;;;;;;8.66;75.53;103508.38;5323002;28;20023;-81
2022/01/18 16:22:04;;;;;;;16.27;8.15;;;;;;;8.68;76.28;103503.47;5328392;28;20446;-83
2022/01/18 16:24:35;;;;;;;13.38;6.53;;;;;;;8.64;75.63;103499.47;5325139;28;20032;-85
2022/01/18 16:27:06;;;;;;;20.98;10.35;;;;;;;8.81;78.05;103497.09;5330509;28;20039;-86
2022/01/18 16:29:37;;;;;;;24.13;9.30;;;;;;;8.82;77.98;103497.94;5331600;28;20028;-85
2022/01/18 16:32:09;;;;;;;22.45;7.68;;;;;;;8.67;75.45;103499.03;5329311;28;20032;-83
2022/01/18 16:34:40;;;;;;;17.50;8.27;;;;;;;8.61;75.83;103502.63;5327905;28;20096;-67
2022/01/18 16:37:11;;;;;;;17.27;7.40;;;;;;;8.55;75.79;103506.25;5328195;28;20027;-68
2022/01/18 16:39:43;;;;;;;22.08;8.48;;;;;;;8.45;75.37;103511.34;5315206;28;20390;-67
2022/01/18 16:42:14;;;;;;;15.73;7.50;;;;;;;8.40;75.87;103514.72;5326062;28;20501;-69
2022/01/18 16:44:46;;;;;;;17.67;8.45;;;;;;;8.36;76.01;103512.56;5315808;28;20030;-69
2022/01/18 16:47:20;;;;;;;19.75;8.25;;;;;;;8.31;75.54;103509.56;5314222;28;20028;-69
2022/01/18 16:49:51;;;;;;;15.30;6.70;;;;;;;8.37;75.58;103508.75;5323753;28;20070;-69
2022/01/18 16:52:23;;;;;;;16.90;6.82;;;;;;;8.31;75.83;103509.56;5312820;28;20463;-69
2022/01/18 16:54:55;;;;;;;17.98;6.80;;;;;;;8.27;76.33;103512.75;5323162;28;20106;-69
2022/01/18 16:57:27;;;;;;;18.42;8.13;;;;;;;8.26;75.33;103505.53;5322376;28;20098;-70
2022/01/18 16:59:59;;;;;;;18.15;6.40;;;;;;;8.31;75.47;103502.16;5320702;28;20051;-69
2022/01/18 17:02:30;;;;;;;14.00;6.63;;;;;;;8.21;75.76;103497.03;5318950;28;20539;-68
2022/01/18 17:05:02;;;;;;;14.63;7.07;;;;;;;8.24;75.69;103499.34;5324017;28;20475;-68
2022/01/18 17:07:35;;;;;;;19.15;6.95;;;;;;;8.23;75.87;103497.66;5316400;28;20016;-68
2022/01/18 17:10:07;;;;;;;26.10;10.13;;;;;;;8.17;76.30;103494.88;5313125;28;20023;-69
2022/01/18 17:12:38;;;;;;;17.77;7.85;;;;;;;8.16;75.92;103495.94;5324298;28;20030;-70
2022/01/18 17:15:10;;;;;;;18.88;8.15;;;;;;;8.07;76.33;103489.75;5324295;28;20031;-69
2022/01/18 17:17:41;;;;;;;17.98;8.32;;;;;;;8.00;76.98;103491.63;5314385;28;20032;-69
2022/01/18 17:20:13;;;;;;;17.92;9.43;;;;;;;8.03;77.54;103499.53;5317957;28;20145;-69
2022/01/18 17:22:44;;;;;;;20.27;8.48;;;;;;;8.04;77.17;103501.22;5307935;28;20090;-68
2022/01/18 17:25:16;;;;;;;14.68;7.68;;;;;;;8.01;77.70;103496.13;5312027;28;20487;-68
2022/01/18 17:27:47;;;;;;;19.08;9.45;;;;;;;7.96;77.20;103496.72;5319048;28;20387;-69
